Time;durP1;ratioP1;P1;durP2;ratioP2;P2;SDS_P1;SDS_P2;PMS_P1;PMS_P2;Temp;Humidity;BMP_temperature;BMP_pressure;BME280_temperature;BME280_humidity;BME280_pressure;Samples;Min_cycle;Max_cycle;Signal;HPM_P1;HPM_P2
2022/11/01 00:01:07;;;;;;;43.70;27.43;;;10.40;99.90;;;;;;5010859;28;20291;-50
2022/11/01 00:03:34;;;;;;;36.43;25.87;;;10.40;99.90;;;;;;5013650;28;20202;-51
2022/11/01 00:06:01;;;;;;;40.07;26.57;;;10.40;99.90;;;;;;5013839;28;20619;-50
2022/11/01 00:08:28;;;;;;;58.33;28.80;;;10.50;99.90;;;;;;5012568;28;20928;-49
2022/11/01 00:11:03;;;;;;;38.67;28.33;;;10.50;99.90;;;;;;5012678;28;20246;-49
2022/11/01 00:13:30;;;;;;;41.73;28.03;;;10.40;99.90;;;;;;5012602;28;20205;-50
2022/11/01 00:15:57;;;;;;;47.63;29.20;;;10.40;99.90;;;;;;5013678;28;20616;-49
2022/11/01 00:18:24;;;;;;;42.47;29.27;;;10.30;99.90;;;;;;5013768;28;20199;-49
2022/11/01 00:20:51;;;;;;;53.53;30.83;;;10.30;99.90;;;;;;5012474;28;20231;-50
2022/11/01 00:23:18;;;;;;;45.33;30.23;;;10.30;99.90;;;;;;5013312;28;20256;-50
2022/11/01 00:25:45;;;;;;;37.63;28.33;;;10.30;99.90;;;;;;5012987;28;20210;-50
2022/11/01 00:28:14;;;;;;;40.83;28.50;;;10.30;99.90;;;;;;5013558;28;20264;-50
2022/11/01 00:30:41;;;;;;;37.63;28.07;;;10.30;99.90;;;;;;5011155;28;20846;-49
2022/11/01 00:33:08;;;;;;;36.60;27.93;;;10.30;99.90;;;;;;5013178;28;20231;-49
2022/11/01 00:35:36;;;;;;;45.23;27.33;;;10.30;99.90;;;;;;5013234;28;20209;-49
2022/11/01 00:38:04;;;;;;;52.17;25.93;;;10.40;99.90;;;;;;5013214;28;20749;-49
2022/11/01 00:40:31;;;;;;;61.27;30.23;;;10.40;99.90;;;;;;5011909;28;20782;-49
2022/11/01 00:42:58;;;;;;;45.47;26.77;;;10.40;99.90;;;;;;5013061;28;20210;-48
2022/11/01 00:45:27;;;;;;;37.87;28.37;;;10.40;99.90;;;;;;5013254;28;20203;-50
2022/11/01 00:47:53;;;;;;;46.40;30.73;;;10.40;99.90;;;;;;5012475;28;20207;-49
2022/11/01 00:50:21;;;;;;;41.70;30.17;;;10.50;99.90;;;;;;5012092;28;20229;-50
2022/11/01 00:52:48;;;;;;;69.73;32.10;;;10.50;99.90;;;;;;5013338;28;20205;-50
2022/11/01 00:55:15;;;;;;;84.23;35.47;;;10.60;99.90;;;;;;5012991;28;20564;-49
2022/11/01 00:57:44;;;;;;;64.80;34.93;;;10.60;99.90;;;;;;5013404;28;20206;-50
2022/11/01 01:00:13;;;;;;;65.73;36.47;;;10.60;99.90;;;;;;5012297;28;20766;-50
2022/11/01 01:02:42;;;;;;;102.67;37.90;;;10.60;99.90;;;;;;5012873;28;20275;-49
2022/11/01 01:05:10;;;;;;;106.53;38.33;;;10.70;99.90;;;;;;5011947;28;20250;-49
2022/11/01 01:07:37;;;;;;;70.93;38.53;;;10.70;99.90;;;;;;5012125;28;20206;-49
2022/11/01 01:10:05;;;;;;;83.57;38.30;;;10.80;99.90;;;;;;5011557;28;20276;-50
2022/11/01 01:12:32;;;;;;;75.23;38.03;;;10.80;99.90;;;;;;5012834;28;20263;-49
2022/11/01 01:14:59;;;;;;;62.80;37.13;;;10.80;99.90;;;;;;5012583;28;20261;-50
2022/11/01 01:17:26;;;;;;;62.57;36.40;;;10.90;99.90;;;;;;5012713;28;20255;-49
2022/11/01 01:19:54;;;;;;;87.30;35.43;;;11.00;99.90;;;;;;5011374;28;20209;-49
2022/11/01 01:22:21;;;;;;;49.17;34.80;;;11.00;99.90;;;;;;5011679;28;20203;-50
2022/11/01 01:24:48;;;;;;;55.13;35.93;;;11.00;99.90;;;;;;5011197;28;20237;-50
2022/11/01 01:27:16;;;;;;;54.60;35.97;;;11.00;99.90;;;;;;5011471;28;20613;-49
2022/11/01 01:29:44;;;;;;;60.47;36.40;;;11.00;99.90;;;;;;5011482;28;20751;-50
2022/11/01 01:32:13;;;;;;;58.13;37.43;;;11.00;99.90;;;;;;5012565;28;20208;-49
2022/11/01 01:34:40;;;;;;;64.57;36.60;;;11.00;99.90;;;;;;5012397;28;20245;-49
2022/11/01 01:37:09;;;;;;;53.07;35.60;;;11.00;99.90;;;;;;5012652;28;20268;-50
2022/11/01 01:39:36;;;;;;;47.67;33.47;;;11.00;99.90;;;;;;5010702;28;20255;-49
2022/11/01 01:42:13;;;;;;;50.37;33.57;;;11.10;99.90;;;;;;5012274;28;20226;-49
2022/11/01 01:45:27;;;;;;;52.27;33.40;;;11.10;99.90;;;;;;5012561;28;20267;-53
2022/11/01 01:47:57;;;;;;;46.73;33.93;;;11.10;99.90;;;;;;5012579;28;20626;-49
2022/11/01 01:50:32;;;;;;;46.07;32.57;;;11.10;99.90;;;;;;5010464;28;20229;-49
2022/11/01 01:53:04;;;;;;;52.03;34.57;;;11.10;99.90;;;;;;5012170;28;20671;-49
2022/11/01 01:55:36;;;;;;;37.83;29.50;;;11.20;99.90;;;;;;5011339;28;20711;-49
2022/11/01 01:58:05;;;;;;;33.40;25.63;;;11.20;99.90;;;;;;5004668;28;20205;-50
2022/11/01 02:00:32;;;;;;;27.50;22.67;;;11.20;99.90;;;;;;5011448;28;20230;-49
2022/11/01 02:02:59;;;;;;;30.23;23.13;;;11.00;99.90;;;;;;5012130;28;20238;-49
2022/11/01 02:05:36;;;;;;;29.67;23.97;;;10.80;99.90;;;;;;5012401;28;20209;-50
2022/11/01 02:08:06;;;;;;;35.67;25.20;;;10.80;99.90;;;;;;5012477;28;20198;-49
2022/11/01 02:10:33;;;;;;;30.10;22.93;;;10.60;99.90;;;;;;5010633;28;20312;-50
2022/11/01 02:13:00;;;;;;;32.33;24.50;;;10.50;99.90;;;;;;5010765;28;20213;-50
2022/11/01 02:15:40;;;;;;;30.77;24.30;;;10.50;99.90;;;;;;5012302;28;20250;-50
2022/11/01 02:18:19;;;;;;;29.67;23.70;;;10.50;99.90;;;;;;5010331;28;20201;-50
2022/11/01 02:21:38;;;;;;;33.00;24.80;;;10.50;99.90;;;;;;5010983;28;20255;-50
2022/11/01 02:24:54;;;;;;;32.10;24.97;;;10.50;99.90;;;;;;4932241;29;20231;-49
2022/11/01 02:27:25;;;;;;;37.47;26.07;;;10.50;99.90;;;;;;4946033;28;20234;-49
2022/11/01 02:30:11;;;;;;;35.03;26.40;;;10.50;99.90;;;;;;5012056;28;20206;-50
2022/11/01 02:32:58;;;;;;;31.33;24.17;;;10.60;99.90;;;;;;5014216;28;20209;-50
2022/11/01 02:35:39;;;;;;;36.07;24.43;;;10.50;99.90;;;;;;5015705;28;20232;-49
2022/11/01 02:38:09;;;;;;;32.00;24.27;;;10.40;99.90;;;;;;5014896;28;20279;-51
2022/11/01 02:40:45;;;;;;;53.63;25.87;;;10.30;99.90;;;;;;5015866;28;20225;-49
2022/11/01 02:43:18;;;;;;;32.67;25.57;;;10.30;99.90;;;;;;5014600;28;20208;-51
2022/11/01 02:45:49;;;;;;;38.17;25.10;;;10.40;99.90;;;;;;5013464;28;20256;-49
2022/11/01 02:48:20;;;;;;;34.07;26.33;;;10.40;99.90;;;;;;5015640;28;20288;-50
2022/11/01 02:50:51;;;;;;;37.60;27.67;;;10.40;99.90;;;;;;5015392;28;20275;-49
2022/11/01 02:53:18;;;;;;;69.43;29.57;;;10.40;99.90;;;;;;5015586;28;20208;-49
2022/11/01 02:55:45;;;;;;;41.30;28.13;;;10.40;99.90;;;;;;5015500;28;20213;-50
2022/11/01 02:58:18;;;;;;;53.80;28.27;;;10.40;99.90;;;;;;5013251;28;20258;-50
2022/11/01 03:00:46;;;;;;;38.27;26.67;;;10.40;99.90;;;;;;5013983;28;20226;-49
2022/11/01 03:03:19;;;;;;;37.77;28.23;;;10.40;99.90;;;;;;5015415;28;20198;-50
2022/11/01 03:05:57;;;;;;;45.67;28.17;;;10.40;99.90;;;;;;5015525;28;20209;-50
2022/11/01 03:08:28;;;;;;;62.97;30.40;;;10.40;99.90;;;;;;5015498;28;20630;-50
2022/11/01 03:11:07;;;;;;;41.50;30.20;;;10.40;99.90;;;;;;5013124;28;20227;-49
2022/11/01 03:13:48;;;;;;;32.20;25.20;;;10.40;99.90;;;;;;5015019;28;20265;-49
2022/11/01 03:16:22;;;;;;;33.93;26.10;;;10.40;99.90;;;;;;5014402;28;20257;-49
2022/11/01 03:19:04;;;;;;;36.57;26.57;;;10.40;99.90;;;;;;5013101;28;20203;-50
2022/11/01 03:21:38;;;;;;;92.53;29.60;;;10.40;99.90;;;;;;5014861;28;20304;-50
2022/11/01 03:24:16;;;;;;;36.07;25.63;;;10.40;99.90;;;;;;5014359;28;20286;-51
2022/11/01 03:26:46;;;;;;;41.20;27.77;;;10.40;99.90;;;;;;5014521;28;20210;-49
2022/11/01 03:29:15;;;;;;;50.10;29.07;;;10.50;99.90;;;;;;5015183;28;20454;-49
2022/11/01 03:31:44;;;;;;;36.53;27.60;;;10.40;99.90;;;;;;5014703;28;20774;-49
2022/11/01 03:34:18;;;;;;;62.23;30.07;;;10.50;99.90;;;;;;5012582;28;20202;-49
2022/11/01 03:36:50;;;;;;;55.87;27.87;;;10.50;99.90;;;;;;5012239;28;20549;-51
2022/11/01 03:39:22;;;;;;;40.93;29.00;;;10.40;99.90;;;;;;5014950;28;20201;-50
2022/11/01 03:41:54;;;;;;;48.60;27.80;;;10.40;99.90;;;;;;5013898;28;20268;-49
2022/11/01 03:44:21;;;;;;;37.87;28.57;;;10.50;99.90;;;;;;5013744;28;20730;-49
2022/11/01 03:46:49;;;;;;;35.03;27.60;;;10.50;99.90;;;;;;5014408;28;20545;-49
2022/11/01 03:49:18;;;;;;;104.23;29.60;;;10.50;99.90;;;;;;5012448;28;20213;-49
2022/11/01 03:51:45;;;;;;;30.73;24.93;;;10.50;99.90;;;;;;5013031;28;20226;-49
2022/11/01 03:54:14;;;;;;;32.27;24.70;;;10.40;99.90;;;;;;5013190;28;20195;-49
2022/11/01 03:56:41;;;;;;;35.50;26.30;;;10.50;99.90;;;;;;5014533;28;20572;-49
2022/11/01 03:59:12;;;;;;;38.90;28.17;;;10.50;99.90;;;;;;5014425;28;20554;-49
2022/11/01 04:01:39;;;;;;;45.67;27.30;;;10.50;99.90;;;;;;5012545;28;20233;-49
2022/11/01 04:04:06;;;;;;;51.43;27.67;;;10.50;99.90;;;;;;5014353;28;20199;-49
2022/11/01 04:06:34;;;;;;;36.30;26.83;;;10.50;99.90;;;;;;5014272;28;20206;-49
2022/11/01 04:09:01;;;;;;;39.60;26.47;;;10.50;99.90;;;;;;5013350;28;20212;-49
2022/11/01 04:11:28;;;;;;;36.47;27.50;;;10.50;99.90;;;;;;5014130;28;20225;-49
2022/11/01 04:20:31;;;;;;;36.33;25.63;;;10.50;99.90;;;;;;5011516;28;20924;-49
2022/11/01 04:22:13;;;;;;;31.70;24.87;;;10.40;99.90;;;;;;5027828;28;20278;-48
2022/11/01 04:24:40;;;;;;;29.27;23.50;;;10.40;99.90;;;;;;5013244;28;20664;-49
2022/11/01 04:27:07;;;;;;;30.93;23.47;;;10.40;99.90;;;;;;5012678;28;20206;-49
2022/11/01 04:29:34;;;;;;;29.53;22.43;;;10.40;99.90;;;;;;5015296;28;20757;-49
2022/11/01 04:32:02;;;;;;;30.77;23.73;;;10.40;99.90;;;;;;5015169;28;20775;-50
2022/11/01 04:34:44;;;;;;;31.57;23.70;;;10.40;99.90;;;;;;5015715;28;20286;-49
2022/11/01 04:37:13;;;;;;;35.33;25.10;;;10.40;99.90;;;;;;5014059;28;20618;-50
2022/11/01 04:39:40;;;;;;;33.53;25.23;;;10.30;99.90;;;;;;5017092;28;20217;-49
2022/11/01 04:42:07;;;;;;;30.37;24.03;;;10.30;99.90;;;;;;5007479;28;20232;-49
2022/11/01 04:44:34;;;;;;;32.57;24.57;;;10.30;99.90;;;;;;5009688;28;20206;-49
2022/11/01 04:47:02;;;;;;;34.63;23.97;;;10.20;99.90;;;;;;5013961;28;20659;-49
2022/11/01 04:49:29;;;;;;;33.07;24.13;;;10.20;99.90;;;;;;5024221;28;20335;-48
2022/11/01 04:51:56;;;;;;;30.50;23.93;;;10.20;99.90;;;;;;5010274;28;20228;-49
2022/11/01 04:54:24;;;;;;;32.20;24.47;;;10.20;99.90;;;;;;5015071;28;20232;-49
2022/11/01 04:56:51;;;;;;;29.17;22.03;;;10.30;99.90;;;;;;5018535;28;20209;-49
2022/11/01 04:59:18;;;;;;;29.50;21.70;;;10.30;99.90;;;;;;5011454;28;20263;-49
2022/11/01 05:01:45;;;;;;;28.27;23.23;;;10.30;99.90;;;;;;5016269;28;20275;-49
2022/11/01 05:04:12;;;;;;;50.97;25.30;;;10.40;99.90;;;;;;5030981;28;20205;-49
2022/11/01 05:06:39;;;;;;;42.07;24.43;;;10.40;99.90;;;;;;5019481;28;20263;-50
2022/11/01 05:09:06;;;;;;;61.30;27.47;;;10.40;99.90;;;;;;5012038;28;20203;-49
2022/11/01 05:11:34;;;;;;;52.60;29.27;;;10.60;99.90;;;;;;5012511;28;20766;-49
2022/11/01 05:14:01;;;;;;;51.47;31.27;;;10.70;99.90;;;;;;5007636;28;20210;-50
2022/11/01 05:16:28;;;;;;;48.57;30.10;;;10.70;99.90;;;;;;5012149;28;20197;-50
2022/11/01 05:18:55;;;;;;;83.10;34.43;;;10.70;99.90;;;;;;5020354;28;20205;-50
2022/11/01 05:21:22;;;;;;;52.43;32.20;;;10.80;99.90;;;;;;5030346;28;20216;-49
2022/11/01 05:23:49;;;;;;;56.67;33.53;;;10.90;99.90;;;;;;5010815;28;20291;-49
2022/11/01 05:26:16;;;;;;;61.07;33.63;;;10.90;99.90;;;;;;5011657;28;20203;-50
2022/11/01 05:28:44;;;;;;;71.27;35.07;;;11.00;99.90;;;;;;5016616;28;20250;-50
2022/11/01 05:31:11;;;;;;;61.27;35.43;;;11.00;99.90;;;;;;5018727;28;20963;-50
2022/11/01 05:33:38;;;;;;;54.13;33.73;;;11.00;99.90;;;;;;5011357;28;20209;-50
2022/11/01 05:36:06;;;;;;;46.00;29.90;;;11.00;99.90;;;;;;5014440;28;20615;-49
2022/11/01 05:38:33;;;;;;;53.60;30.93;;;11.00;99.90;;;;;;5011989;28;20198;-49
2022/11/01 05:41:02;;;;;;;60.63;30.37;;;10.90;99.90;;;;;;5010440;28;20275;-49
2022/11/01 05:43:29;;;;;;;47.60;28.93;;;10.90;99.90;;;;;;5015327;28;20691;-49
2022/11/01 05:45:57;;;;;;;43.93;30.00;;;10.80;99.90;;;;;;5011473;28;20198;-49
2022/11/01 05:48:25;;;;;;;42.87;27.33;;;10.80;99.90;;;;;;5015401;28;20286;-50
2022/11/01 05:50:52;;;;;;;42.77;28.73;;;10.80;99.90;;;;;;5023389;28;20260;-49
2022/11/01 05:53:19;;;;;;;41.10;30.30;;;10.80;99.90;;;;;;5008897;28;20201;-49
2022/11/01 05:55:46;;;;;;;44.60;29.03;;;10.80;99.90;;;;;;5014740;28;20196;-49
2022/11/01 05:58:13;;;;;;;38.07;26.33;;;10.70;99.90;;;;;;5015695;28;20212;-49
2022/11/01 06:00:40;;;;;;;33.20;23.33;;;10.70;99.90;;;;;;5016243;28;20707;-49
2022/11/01 06:03:08;;;;;;;30.57;22.90;;;10.60;99.90;;;;;;5029452;28;20268;-49
2022/11/01 06:05:38;;;;;;;26.17;21.67;;;10.60;99.90;;;;;;5028592;28;20207;-49
2022/11/01 06:08:06;;;;;;;26.20;18.73;;;10.50;99.90;;;;;;5029750;28;20211;-49
2022/11/01 06:10:34;;;;;;;29.60;21.53;;;10.40;99.90;;;;;;5029425;28;20827;-49
2022/11/01 06:13:01;;;;;;;26.27;19.73;;;10.40;99.90;;;;;;5015035;28;20636;-49
2022/11/01 06:15:28;;;;;;;25.20;21.10;;;10.40;99.90;;;;;;5004573;28;20626;-48
2022/11/01 06:17:57;;;;;;;26.93;21.90;;;10.40;99.90;;;;;;5010413;28;20209;-49
2022/11/01 06:20:25;;;;;;;25.23;19.97;;;10.30;99.90;;;;;;5009482;28;20352;-48
2022/11/01 06:22:52;;;;;;;26.13;21.30;;;10.30;99.90;;;;;;5010163;28;20225;-49
2022/11/01 06:25:19;;;;;;;26.70;20.57;;;10.40;99.90;;;;;;5010604;28;20378;-50
2022/11/01 06:27:46;;;;;;;27.10;20.53;;;10.50;99.90;;;;;;5011266;28;20261;-50
2022/11/01 06:30:13;;;;;;;28.77;20.47;;;10.50;99.90;;;;;;5008132;28;20217;-49
2022/11/01 06:32:40;;;;;;;27.30;21.03;;;10.50;99.90;;;;;;5011187;28;20197;-50
2022/11/01 06:35:09;;;;;;;33.10;22.93;;;10.40;99.90;;;;;;5011015;28;20299;-49
2022/11/01 06:37:37;;;;;;;33.67;24.67;;;10.50;99.90;;;;;;5010991;28;20293;-49
2022/11/01 06:40:05;;;;;;;28.37;22.00;;;10.50;99.90;;;;;;5010868;28;20233;-49
2022/11/01 06:42:32;;;;;;;40.37;27.47;;;10.50;99.90;;;;;;5011080;28;20218;-49
2022/11/01 06:44:59;;;;;;;36.60;26.90;;;10.70;99.90;;;;;;5007305;28;20204;-49
2022/11/01 06:47:26;;;;;;;37.57;26.80;;;10.70;99.90;;;;;;5012307;28;20252;-49
2022/11/01 06:49:53;;;;;;;40.97;27.90;;;10.70;99.90;;;;;;5010783;28;20256;-49
2022/11/01 06:52:20;;;;;;;38.83;27.20;;;10.80;99.90;;;;;;5011410;28;20244;-49
2022/11/01 06:54:48;;;;;;;40.17;27.77;;;10.90;99.90;;;;;;5013398;28;20253;-49
2022/11/01 06:57:15;;;;;;;45.57;28.10;;;10.90;99.90;;;;;;5011439;28;20201;-48
2022/11/01 06:59:42;;;;;;;47.00;30.87;;;10.90;99.90;;;;;;5011832;28;20202;-49
2022/11/01 07:02:10;;;;;;;34.97;26.10;;;10.90;99.90;;;;;;5009747;28;20252;-49
2022/11/01 07:04:37;;;;;;;35.27;24.10;;;10.90;99.90;;;;;;5009500;28;20201;-51
2022/11/01 07:07:05;;;;;;;31.67;24.10;;;10.90;99.90;;;;;;5011778;28;20209;-49
2022/11/01 07:09:32;;;;;;;33.17;25.70;;;10.90;99.90;;;;;;5010755;28;20220;-50
2022/11/01 07:12:00;;;;;;;38.00;26.77;;;10.90;99.90;;;;;;5007633;28;20278;-50
2022/11/01 07:14:27;;;;;;;30.20;23.47;;;11.00;99.90;;;;;;5010465;28;20676;-50
2022/11/01 07:16:54;;;;;;;39.47;27.73;;;11.10;99.90;;;;;;5011830;28;20248;-49
2022/11/01 07:19:22;;;;;;;33.60;23.23;;;11.20;99.90;;;;;;5014697;28;20247;-49
2022/11/01 07:21:49;;;;;;;33.07;23.47;;;11.20;99.90;;;;;;5014365;28;20260;-49
2022/11/01 07:24:19;;;;;;;34.87;22.47;;;11.30;99.90;;;;;;5013290;28;20260;-49
2022/11/01 07:26:46;;;;;;;33.57;24.60;;;11.30;99.90;;;;;;5013784;28;20247;-49
2022/11/01 07:29:16;;;;;;;29.83;23.27;;;11.40;99.90;;;;;;5013689;28;20213;-49
2022/11/01 07:31:43;;;;;;;34.47;24.03;;;11.50;99.90;;;;;;5022231;28;20706;-49
2022/11/01 07:34:09;;;;;;;34.93;23.10;;;11.50;99.90;;;;;;5013539;28;20639;-50
2022/11/01 07:36:36;;;;;;;28.40;22.77;;;11.50;99.90;;;;;;5013478;28;20738;-49
2022/11/01 07:39:04;;;;;;;27.00;20.63;;;11.60;99.90;;;;;;5013937;28;20251;-50
2022/11/01 07:41:31;;;;;;;25.47;20.37;;;11.60;99.90;;;;;;5024243;28;20316;-49
2022/11/01 07:43:58;;;;;;;31.57;23.07;;;11.60;99.90;;;;;;5031496;28;20207;-50
2022/11/01 07:46:26;;;;;;;24.77;19.73;;;11.70;99.90;;;;;;5023829;28;20258;-50
2022/11/01 07:48:53;;;;;;;25.87;19.63;;;11.70;99.90;;;;;;5032201;28;20619;-49
2022/11/01 07:51:20;;;;;;;23.37;19.20;;;11.80;99.90;;;;;;5028499;28;20229;-50
2022/11/01 07:53:47;;;;;;;30.57;21.70;;;11.80;99.90;;;;;;5018347;28;20287;-49
2022/11/01 07:56:14;;;;;;;25.85;21.00;;;11.90;99.90;;;;;;5011603;28;20497;-49
2022/11/01 07:58:42;;;;;;;23.83;19.43;;;12.00;99.90;;;;;;5012221;28;20289;-50
2022/11/01 08:01:10;;;;;;;21.87;17.67;;;12.10;99.90;;;;;;5002431;28;20230;-49
2022/11/01 08:03:38;;;;;;;22.63;19.10;;;12.20;99.90;;;;;;5006255;28;20254;-49
2022/11/01 08:06:06;;;;;;;22.03;18.10;;;12.30;99.90;;;;;;5014436;28;20202;-49
2022/11/01 08:08:33;;;;;;;17.83;15.40;;;12.40;99.90;;;;;;5028446;28;20202;-49
2022/11/01 08:11:00;;;;;;;26.23;18.70;;;12.50;99.90;;;;;;5013169;28;20221;-49
2022/11/01 08:13:28;;;;;;;25.27;18.17;;;12.60;99.90;;;;;;5012257;28;20229;-49
2022/11/01 08:15:55;;;;;;;26.90;18.57;;;12.80;99.90;;;;;;5013581;28;20210;-50
2022/11/01 08:18:24;;;;;;;21.27;17.80;;;12.90;99.90;;;;;;5013159;28;20195;-49
2022/11/01 08:20:52;;;;;;;18.90;15.60;;;13.00;99.90;;;;;;5016192;28;20904;-50
2022/11/01 08:23:20;;;;;;;17.97;15.80;;;13.10;99.90;;;;;;5008586;28;20211;-49
2022/11/01 08:25:47;;;;;;;16.80;14.47;;;13.10;99.90;;;;;;5022304;28;20209;-50
2022/11/01 08:28:16;;;;;;;21.17;15.23;;;13.20;99.90;;;;;;5031375;28;20232;-49
2022/11/01 08:30:45;;;;;;;21.87;14.87;;;13.40;99.90;;;;;;5027341;28;20226;-49
2022/11/01 08:33:13;;;;;;;17.60;14.13;;;13.50;99.90;;;;;;5013080;28;20191;-50
2022/11/01 08:35:40;;;;;;;16.97;14.57;;;13.60;99.90;;;;;;5003674;28;20209;-50
2022/11/01 08:38:09;;;;;;;17.00;14.73;;;13.70;99.90;;;;;;5004601;28;20245;-50
2022/11/01 08:40:36;;;;;;;14.57;12.90;;;13.90;99.90;;;;;;5004299;28;20230;-49
2022/11/01 08:43:03;;;;;;;17.20;13.40;;;14.00;99.90;;;;;;5017783;28;20265;-49
2022/11/01 08:45:30;;;;;;;18.57;12.93;;;14.20;99.90;;;;;;5004846;28;20685;-49
2022/11/01 08:47:59;;;;;;;12.57;11.37;;;14.40;99.90;;;;;;5004846;28;20743;-50
2022/11/01 08:50:26;;;;;;;13.03;11.23;;;14.70;99.90;;;;;;5002495;28;20321;-50
2022/11/01 08:52:53;;;;;;;14.57;12.70;;;15.00;99.90;;;;;;5002707;28;20266;-51
2022/11/01 08:55:22;;;;;;;13.83;12.37;;;15.30;99.90;;;;;;5008878;28;20258;-49
2022/11/01 08:57:49;;;;;;;13.67;12.27;;;15.60;99.90;;;;;;5004456;28;20279;-50
2022/11/01 09:00:17;;;;;;;15.27;12.27;;;15.70;99.90;;;;;;5002756;28;20222;-49
2022/11/01 09:02:44;;;;;;;17.10;12.67;;;15.80;99.90;;;;;;5002272;28;20238;-50
2022/11/01 09:05:11;;;;;;;15.70;11.43;;;16.00;99.90;;;;;;5001881;28;20207;-51
2022/11/01 09:07:39;;;;;;;19.97;12.73;;;16.20;99.90;;;;;;5001664;28;20203;-50
2022/11/01 09:10:07;;;;;;;12.00;9.93;;;16.20;99.90;;;;;;5004077;28;20219;-51
2022/11/01 09:12:35;;;;;;;15.77;12.17;;;16.30;99.90;;;;;;5002174;28;20195;-49
2022/11/01 09:15:03;;;;;;;13.13;9.23;;;16.30;99.90;;;;;;5001843;28;20610;-49
2022/11/01 09:17:30;;;;;;;9.70;7.80;;;16.30;99.90;;;;;;5000288;28;20297;-50
2022/11/01 09:19:57;;;;;;;8.47;6.63;;;16.30;99.90;;;;;;5003381;28;20208;-49
2022/11/01 09:22:25;;;;;;;7.43;6.60;;;16.30;99.90;;;;;;5002279;28;20226;-50
2022/11/01 09:24:54;;;;;;;6.60;5.97;;;16.20;99.90;;;;;;5006642;28;20195;-50
2022/11/01 09:27:21;;;;;;;10.60;8.23;;;16.20;99.90;;;;;;5003719;28;20233;-50
2022/11/01 09:29:49;;;;;;;7.10;5.93;;;16.10;99.90;;;;;;5002157;28;20275;-50
2022/11/01 09:32:16;;;;;;;7.87;6.67;;;16.20;99.90;;;;;;5000114;28;20203;-49
2022/11/01 09:34:44;;;;;;;8.37;6.87;;;16.20;99.90;;;;;;5001214;28;20211;-49
2022/11/01 09:37:11;;;;;;;9.37;8.07;;;16.30;99.90;;;;;;5003771;28;20444;-50
2022/11/01 09:39:38;;;;;;;15.30;10.83;;;16.30;99.90;;;;;;5007999;28;20265;-50
2022/11/01 09:42:10;;;;;;;16.37;12.87;;;16.40;99.90;;;;;;5003459;28;20200;-51
2022/11/01 09:44:40;;;;;;;16.60;13.73;;;16.50;99.90;;;;;;5001433;28;20199;-49
2022/11/01 09:47:16;;;;;;;15.93;14.17;;;16.40;99.90;;;;;;5002874;28;20203;-50
2022/11/01 09:49:46;;;;;;;16.00;14.23;;;16.20;99.90;;;;;;5005682;28;20206;-50
2022/11/01 09:52:19;;;;;;;22.20;15.60;;;16.20;99.90;;;;;;5001276;28;20199;-50
2022/11/01 09:54:46;;;;;;;17.10;15.50;;;16.10;99.90;;;;;;5001585;28;20629;-49
2022/11/01 09:57:18;;;;;;;15.23;13.30;;;16.20;99.90;;;;;;5004208;28;20207;-50
2022/11/01 09:59:56;;;;;;;18.33;13.40;;;16.20;99.90;;;;;;5006452;28;20198;-49
2022/11/01 10:02:56;;;;;;;15.20;13.70;;;16.30;99.90;;;;;;5004263;28;20612;-50
2022/11/01 10:05:40;;;;;;;14.20;12.90;;;16.30;99.90;;;;;;5007216;28;20591;-50
2022/11/01 10:08:16;;;;;;;15.53;13.27;;;16.30;99.90;;;;;;5005560;28;20206;-50
2022/11/01 10:10:58;;;;;;;14.13;12.67;;;16.20;99.90;;;;;;5007966;28;20223;-49
2022/11/01 10:13:37;;;;;;;16.30;14.33;;;16.20;99.90;;;;;;5007506;28;20199;-50
2022/11/01 10:16:09;;;;;;;22.87;14.23;;;16.40;99.90;;;;;;5006596;28;20209;-49
2022/11/01 10:18:45;;;;;;;20.70;13.60;;;16.60;99.90;;;;;;5007099;28;20199;-51
2022/11/01 10:21:16;;;;;;;15.33;11.00;;;16.70;99.90;;;;;;5009748;28;20253;-50
2022/11/01 10:23:46;;;;;;;11.47;9.43;;;16.80;99.90;;;;;;5010165;28;20211;-50
2022/11/01 10:26:16;;;;;;;12.93;11.07;;;17.00;99.90;;;;;;5009340;28;20220;-50
2022/11/01 10:28:49;;;;;;;12.73;11.53;;;17.20;99.90;;;;;;5008249;28;20231;-50
2022/11/01 10:31:21;;;;;;;13.03;11.77;;;17.30;99.90;;;;;;5006872;28;20242;-50
2022/11/01 10:33:56;;;;;;;12.37;11.07;;;17.20;99.90;;;;;;5006433;28;20203;-49
2022/11/01 10:36:27;;;;;;;11.33;9.90;;;17.20;99.90;;;;;;5007773;28;20213;-50
2022/11/01 10:39:03;;;;;;;10.97;9.70;;;17.30;99.90;;;;;;5005008;28;20211;-50
2022/11/01 10:41:35;;;;;;;11.47;9.33;;;17.40;99.90;;;;;;5007252;28;20784;-50
2022/11/01 10:44:07;;;;;;;10.93;9.30;;;17.50;99.90;;;;;;5007890;28;20300;-50
2022/11/01 10:46:39;;;;;;;10.10;9.07;;;17.50;99.90;;;;;;5009510;28;20701;-50
2022/11/01 10:49:18;;;;;;;8.53;7.73;;;17.60;99.90;;;;;;5007899;28;20250;-50
2022/11/01 10:51:46;;;;;;;8.80;7.07;;;17.60;99.90;;;;;;5002065;28;20229;-51
2022/11/01 10:54:18;;;;;;;10.00;8.20;;;17.70;99.90;;;;;;5004502;28;20229;-50
2022/11/01 10:56:49;;;;;;;8.13;7.43;;;17.70;99.90;;;;;;5004695;28;20199;-51
2022/11/01 10:59:20;;;;;;;7.43;6.90;;;17.70;99.90;;;;;;5004563;28;20211;-51
2022/11/01 11:01:50;;;;;;;7.57;6.97;;;17.60;99.90;;;;;;5002772;28;20230;-49
2022/11/01 11:04:21;;;;;;;8.40;7.70;;;17.50;99.90;;;;;;5003152;28;20218;-49
2022/11/01 11:06:48;;;;;;;8.67;6.97;;;17.40;99.90;;;;;;5004414;28;20591;-51
2022/11/01 11:09:24;;;;;;;9.33;7.63;;;17.50;99.90;;;;;;5005113;28;20211;-49
2022/11/01 11:11:55;;;;;;;8.93;7.87;;;17.60;99.90;;;;;;5003777;28;20630;-50
2022/11/01 11:14:22;;;;;;;8.90;7.30;;;17.60;99.90;;;;;;5005492;28;20207;-50
2022/11/01 11:16:54;;;;;;;7.03;6.33;;;17.70;99.90;;;;;;5004435;28;20199;-50
2022/11/01 11:19:33;;;;;;;8.27;7.40;;;17.70;99.90;;;;;;5002695;28;20710;-49
2022/11/01 11:22:05;;;;;;;7.43;6.87;;;17.70;99.90;;;;;;5003420;28;20227;-51
2022/11/01 11:24:35;;;;;;;10.67;7.07;;;17.70;99.90;;;;;;5011655;28;20246;-51
2022/11/01 11:27:04;;;;;;;8.30;6.77;;;17.60;99.90;;;;;;5011348;28;20211;-49
2022/11/01 11:29:37;;;;;;;7.40;6.03;;;17.60;99.90;;;;;;5009696;28;20681;-50
2022/11/01 11:32:07;;;;;;;7.50;5.23;;;17.70;99.90;;;;;;5013071;28;20735;-51
2022/11/01 11:34:37;;;;;;;6.20;5.30;;;17.70;99.90;;;;;;5013107;28;20203;-49
2022/11/01 11:37:07;;;;;;;6.20;5.43;;;17.80;99.90;;;;;;5006655;28;20197;-50
2022/11/01 11:39:36;;;;;;;7.07;5.53;;;17.80;99.90;;;;;;5011365;28;20205;-50
2022/11/01 11:42:16;;;;;;;12.40;5.67;;;17.90;99.90;;;;;;5010530;28;22037;-50
2022/11/01 11:44:45;;;;;;;5.57;4.67;;;17.70;99.90;;;;;;5010110;28;20219;-51
2022/11/01 11:47:23;;;;;;;5.60;4.37;;;17.70;99.90;;;;;;5012272;28;20200;-50
2022/11/01 11:49:53;;;;;;;6.87;4.60;;;17.70;99.90;;;;;;5012254;28;20256;-50
2022/11/01 11:52:23;;;;;;;4.27;3.77;;;17.70;99.90;;;;;;5011766;28;20207;-50
2022/11/01 11:54:50;;;;;;;7.20;3.73;;;17.80;99.90;;;;;;5012930;28;20199;-50
2022/11/01 11:57:23;;;;;;;6.07;3.10;;;17.80;99.90;;;;;;5012748;28;20274;-50
2022/11/01 11:59:53;;;;;;;4.37;2.73;;;17.80;99.90;;;;;;5007283;28;20645;-51
2022/11/01 12:02:24;;;;;;;5.43;2.57;;;17.70;99.90;;;;;;5011593;28;20273;-50
2022/11/01 12:04:58;;;;;;;3.27;2.23;;;17.70;99.90;;;;;;5010939;28;20211;-50
2022/11/01 12:07:31;;;;;;;3.70;3.07;;;17.70;99.90;;;;;;5010863;28;20213;-50
2022/11/01 12:10:01;;;;;;;2.40;2.30;;;17.70;99.90;;;;;;5009114;28;21486;-51
2022/11/01 12:12:30;;;;;;;3.53;2.60;;;17.70;99.90;;;;;;5011332;28;20277;-51
2022/11/01 12:14:58;;;;;;;4.57;2.80;;;17.60;99.90;;;;;;5012183;28;20200;-51
2022/11/01 12:17:31;;;;;;;8.07;3.63;;;17.50;99.90;;;;;;5009490;28;20204;-50
2022/11/01 12:20:19;;;;;;;7.23;3.47;;;17.40;99.90;;;;;;5002929;28;20226;-50
2022/11/01 12:22:50;;;;;;;3.67;2.90;;;17.40;99.90;;;;;;5006436;28;20195;-50
2022/11/01 12:25:21;;;;;;;5.57;3.40;;;17.60;99.90;;;;;;5001972;28;20776;-49
2022/11/01 12:27:56;;;;;;;3.97;3.03;;;17.40;99.90;;;;;;5003728;28;20208;-50
2022/11/01 12:30:24;;;;;;;5.63;4.27;;;17.40;99.90;;;;;;5004714;28;20223;-51
2022/11/01 12:32:53;;;;;;;5.00;3.73;;;17.50;99.90;;;;;;5008870;28;20227;-50
2022/11/01 12:35:26;;;;;;;2.83;2.67;;;17.50;99.90;;;;;;5009877;28;20207;-50
2022/11/01 12:38:06;;;;;;;3.93;2.90;;;17.60;99.90;;;;;;5002477;28;20268;-51
2022/11/01 12:40:36;;;;;;;4.50;4.00;;;17.60;99.90;;;;;;5002411;28;20318;-51
2022/11/01 12:43:12;;;;;;;4.63;2.73;;;17.70;99.90;;;;;;5002707;28;20203;-51
2022/11/01 12:45:48;;;;;;;7.23;3.40;;;17.60;99.90;;;;;;5002751;28;20238;-50
2022/11/01 12:48:23;;;;;;;3.77;2.93;;;17.50;99.90;;;;;;5002445;28;20814;-50
2022/11/01 12:50:56;;;;;;;5.20;1.93;;;17.50;99.90;;;;;;5003670;28;20328;-51